createdAt,value
2019-01-05T00:02:37.803Z,102853.41
2019-01-05T00:05:44.006Z,102845.42
2019-01-05T00:08:30.821Z,102849.60
2019-01-05T00:11:13.259Z,102848.84
2019-01-05T00:14:04.454Z,102850.73
2019-01-05T00:16:51.017Z,102836.13
2019-01-05T00:19:36.040Z,102842.23
2019-01-05T00:22:23.452Z,102837.84
2019-01-05T00:25:09.991Z,102835.41
2019-01-05T00:28:00.802Z,102835.72
2019-01-05T00:30:48.562Z,102838.52
2019-01-05T00:33:45.735Z,102834.47
2019-01-05T00:36:38.918Z,102827.39
2019-01-05T00:39:36.141Z,102826.53
2019-01-05T00:42:33.205Z,102829.11
2019-01-05T00:45:29.028Z,102822.13
2019-01-05T00:48:15.781Z,102826.14
2019-01-05T00:51:15.477Z,102823.70
2019-01-05T00:54:09.676Z,102815.41
2019-01-05T00:57:00.682Z,102817.13
2019-01-05T00:59:58.550Z,102821.01
2019-01-05T01:02:45.405Z,102814.67
2019-01-05T01:05:39.398Z,102810.79
2019-01-05T01:08:36.090Z,102810.92
2019-01-05T01:11:24.438Z,102815.04
2019-01-05T01:14:14.999Z,102821.31
2019-01-05T01:17:01.679Z,102819.97
2019-01-05T01:19:48.670Z,102818.34
2019-01-05T01:22:36.582Z,102826.58
2019-01-05T01:25:29.471Z,102818.48
2019-01-05T01:28:15.951Z,102820.70
2019-01-05T01:31:07.933Z,102806.58
2019-01-05T01:33:53.748Z,102810.22
2019-01-05T01:36:40.580Z,102810.45
2019-01-05T01:39:48.900Z,102814.16
2019-01-05T01:42:41.053Z,102804.66
2019-01-05T01:45:28.061Z,102805.70
2019-01-05T01:48:15.412Z,102798.48
2019-01-05T01:51:03.426Z,102797.50
2019-01-05T01:53:50.268Z,102791.03
2019-01-05T01:56:47.317Z,102792.04
2019-01-05T01:59:39.423Z,102796.02
2019-01-05T02:02:33.460Z,102786.20
2019-01-05T02:05:20.290Z,102777.16
2019-01-05T02:08:09.868Z,102778.44
2019-01-05T02:11:02.243Z,102776.95
2019-01-05T02:13:49.267Z,102770.91
2019-01-05T02:16:57.272Z,102758.06
2019-01-05T02:19:48.192Z,102747.41
2019-01-05T02:23:19.087Z,102744.38
2019-01-05T02:27:03.559Z,102749.16
2019-01-05T02:30:33.680Z,102744.09
2019-01-05T02:34:14.169Z,102746.86
2019-01-05T02:38:01.391Z,102739.72
2019-01-05T02:41:22.859Z,102740.05
2019-01-05T02:44:43.008Z,102735.22
2019-01-05T02:48:15.931Z,102725.77
2019-01-05T02:51:49.447Z,102710.78
2019-01-05T02:55:22.252Z,102713.58
2019-01-05T02:58:50.188Z,102713.57
2019-01-05T03:02:24.601Z,102715.80
2019-01-05T03:05:59.363Z,102721.45
2019-01-05T03:09:32.783Z,102705.80
2019-01-05T03:13:06.351Z,102702.45
2019-01-05T03:16:50.940Z,102711.42
2019-01-05T03:20:32.585Z,102713.63
2019-01-05T03:24:10.233Z,102704.92
2019-01-05T03:27:58.442Z,102700.22
2019-01-05T03:31:22.607Z,102708.72
2019-01-05T03:34:49.401Z,102700.41
2019-01-05T03:38:13.018Z,102688.40
2019-01-05T03:41:56.220Z,102689.92
2019-01-05T03:45:34.209Z,102682.84
2019-01-05T03:48:57.630Z,102682.92
2019-01-05T03:52:27.155Z,102685.77
2019-01-05T03:55:49.757Z,102680.30
2019-01-05T03:59:33.369Z,102684.02
2019-01-05T04:02:48.080Z,102668.00
2019-01-05T04:06:27.018Z,102674.50
2019-01-05T04:09:54.399Z,102666.47
2019-01-05T04:13:28.866Z,102678.55
2019-01-05T04:16:50.439Z,102662.20
2019-01-05T04:20:40.256Z,102663.55
2019-01-05T04:23:58.985Z,102656.87
2019-01-05T04:27:36.041Z,102659.30
2019-01-05T04:30:56.702Z,102662.12
2019-01-05T04:34:35.284Z,102662.12
2019-01-05T04:38:02.300Z,102652.83
2019-01-05T04:41:23.070Z,102650.13
2019-01-05T04:45:10.991Z,102649.73
2019-01-05T04:48:45.559Z,102643.45
2019-01-05T04:52:15.219Z,102637.66
2019-01-05T04:56:07.192Z,102640.63
2019-01-05T04:59:17.468Z,102630.13
2019-01-05T05:02:43.082Z,102638.05
2019-01-05T05:06:33.044Z,102638.92
2019-01-05T05:10:12.059Z,102634.80
2019-01-05T05:14:05.628Z,102626.09
2019-01-05T05:17:28.526Z,102642.58
2019-01-05T05:20:36.614Z,102635.68
2019-01-05T05:24:18.975Z,102633.53
2019-01-05T05:27:55.311Z,102647.28
2019-01-05T05:31:21.190Z,102637.65
2019-01-05T05:35:13.873Z,102633.27
2019-01-05T05:38:39.186Z,102634.51
2019-01-05T05:42:06.741Z,102645.20
2019-01-05T05:45:26.971Z,102643.16
2019-01-05T05:49:13.032Z,102652.13
2019-01-05T05:52:27.539Z,102647.50
2019-01-05T05:56:07.026Z,102640.83
2019-01-05T05:59:35.287Z,102633.60
2019-01-05T06:03:12.545Z,102636.76
2019-01-05T06:06:44.388Z,102629.87
2019-01-05T06:10:06.727Z,102628.86
2019-01-05T06:13:38.634Z,102621.38
2019-01-05T06:17:02.582Z,102620.69
2019-01-05T06:21:01.457Z,102618.94
2019-01-05T06:24:37.508Z,102626.63
2019-01-05T06:28:16.747Z,102625.76
2019-01-05T06:31:51.978Z,102628.12
2019-01-05T06:35:22.965Z,102627.58
2019-01-05T06:39:06.140Z,102634.00
2019-01-05T06:42:35.254Z,102631.96
2019-01-05T06:46:06.901Z,102644.18
2019-01-05T06:49:54.705Z,102640.05
2019-01-05T06:53:19.873Z,102635.36
2019-01-05T06:56:54.841Z,102636.63
2019-01-05T07:00:30.222Z,102634.73
2019-01-05T07:03:46.201Z,102633.30
2019-01-05T07:07:04.041Z,102634.26
2019-01-05T07:10:18.211Z,102635.36
2019-01-05T07:13:31.512Z,102638.70
2019-01-05T07:16:47.111Z,102640.28
2019-01-05T07:20:02.917Z,102644.98
2019-01-05T07:23:49.595Z,102662.20
2019-01-05T07:27:36.217Z,102656.47
2019-01-05T07:31:00.526Z,102658.30
2019-01-05T07:34:36.900Z,102668.52
2019-01-05T07:38:01.989Z,102663.00
2019-01-05T07:41:24.362Z,102668.08
2019-01-05T07:45:00.942Z,102660.58
2019-01-05T07:48:28.249Z,102664.94
2019-01-05T07:51:57.568Z,102668.88
2019-01-05T07:55:47.242Z,102678.19
2019-01-05T07:59:18.681Z,102683.47
2019-01-05T08:03:08.965Z,102674.42
2019-01-05T08:06:27.605Z,102681.17
2019-01-05T08:09:32.414Z,102681.50
2019-01-05T08:13:11.466Z,102683.80
2019-01-05T08:16:32.459Z,102684.60
2019-01-05T08:20:06.869Z,102690.63
2019-01-05T08:23:41.247Z,102689.67
2019-01-05T08:27:21.784Z,102693.66
2019-01-05T08:30:39.926Z,102694.05
2019-01-05T08:33:56.552Z,102691.97
2019-01-05T08:37:17.694Z,102691.79
2019-01-05T08:40:43.077Z,102692.59
2019-01-05T08:44:06.353Z,102692.81
2019-01-05T08:47:56.147Z,102687.63
2019-01-05T08:51:32.165Z,102686.36
2019-01-05T08:54:58.843Z,102683.40
2019-01-05T08:58:42.687Z,102699.27
2019-01-05T09:01:59.485Z,102699.27
2019-01-05T09:05:09.842Z,102707.84
2019-01-05T09:08:28.642Z,102699.97
2019-01-05T09:11:58.641Z,102702.73
2019-01-05T09:15:31.032Z,102699.12
2019-01-05T09:19:09.571Z,102702.27
2019-01-05T09:22:43.915Z,102704.89
2019-01-05T09:26:19.817Z,102708.47
2019-01-05T09:30:02.062Z,102707.67
2019-01-05T09:33:19.147Z,102700.11
2019-01-05T09:36:32.663Z,102711.72
2019-01-05T09:40:12.463Z,102704.56
2019-01-05T09:43:37.524Z,102714.02
2019-01-05T09:47:36.473Z,102717.00
2019-01-05T09:51:16.946Z,102719.38
2019-01-05T09:54:45.424Z,102722.85
2019-01-05T09:58:21.137Z,102724.13
2019-01-05T10:01:23.605Z,102717.84
2019-01-05T10:04:57.763Z,102712.19
2019-01-05T10:08:10.303Z,102709.49
2019-01-05T10:11:34.081Z,102703.14
2019-01-05T10:15:17.905Z,102699.89
2019-01-05T10:18:55.996Z,102699.09
2019-01-05T10:22:25.239Z,102697.67
2019-01-05T10:25:45.788Z,102705.84
2019-01-05T10:29:44.465Z,102699.27
2019-01-05T10:32:58.592Z,102701.02
2019-01-05T10:36:07.833Z,102697.27
2019-01-05T10:39:35.348Z,102696.23
2019-01-05T10:43:23.964Z,102692.41
2019-01-05T10:47:11.547Z,102683.84
2019-01-05T10:50:49.606Z,102679.06
2019-01-05T10:54:12.313Z,102678.27
2019-01-05T10:57:23.285Z,102677.09
2019-01-05T11:00:54.775Z,102681.07
2019-01-05T11:04:40.696Z,102681.95
2019-01-05T11:08:36.326Z,102679.47
2019-01-05T11:12:15.566Z,102675.43
2019-01-05T11:15:49.763Z,102672.72
2019-01-05T11:19:13.438Z,102666.58
2019-01-05T11:22:43.086Z,102667.30
2019-01-05T11:26:14.672Z,102668.59
2019-01-05T11:29:58.480Z,102674.45
2019-01-05T11:33:24.143Z,102663.19
2019-01-05T11:37:16.382Z,102655.70
2019-01-05T11:40:40.851Z,102664.27
2019-01-05T11:44:43.223Z,102661.44
2019-01-05T11:48:14.115Z,102661.45
2019-01-05T11:52:10.248Z,102656.43
2019-01-05T11:55:37.908Z,102650.36
2019-01-05T11:59:05.141Z,102642.91
2019-01-05T12:02:41.885Z,102644.97
2019-01-05T12:06:13.011Z,102639.55
2019-01-05T12:09:28.446Z,102640.70
2019-01-05T12:13:21.153Z,102637.40
2019-01-05T12:16:42.201Z,102631.84
2019-01-05T12:20:16.208Z,102632.14
2019-01-05T12:23:54.546Z,102623.19
2019-01-05T12:27:19.779Z,102628.62
2019-01-05T12:30:42.828Z,102619.80
2019-01-05T12:34:20.363Z,102625.92
2019-01-05T12:37:48.355Z,102619.45
2019-01-05T12:41:15.013Z,102610.42
2019-01-05T12:45:00.673Z,102612.81
2019-01-05T12:48:33.698Z,102615.16
2019-01-05T12:51:58.388Z,102601.48
2019-01-05T12:55:30.043Z,102604.62
2019-01-05T12:59:11.669Z,102607.05
2019-01-05T13:02:25.674Z,102609.27
2019-01-05T13:05:49.994Z,102610.31
2019-01-05T13:09:24.514Z,102614.39
2019-01-05T13:13:03.283Z,102607.15
2019-01-05T13:16:31.131Z,102603.88
2019-01-05T13:19:55.258Z,102610.88
2019-01-05T13:23:54.259Z,102612.36
2019-01-05T13:27:42.268Z,102617.45
2019-01-05T13:31:04.949Z,102617.94
2019-01-05T13:34:55.560Z,102616.79
2019-01-05T13:38:33.300Z,102617.98
2019-01-05T13:41:59.227Z,102621.88
2019-01-05T13:45:26.497Z,102622.04
2019-01-05T13:49:01.211Z,102627.61
2019-01-05T13:52:44.562Z,102627.57
2019-01-05T13:55:55.834Z,102634.77
2019-01-05T13:58:55.442Z,102626.09
2019-01-05T14:01:44.795Z,102626.30
2019-01-05T14:04:48.565Z,102630.67
2019-01-05T14:07:45.938Z,102633.30
2019-01-05T14:10:40.430Z,102635.92
2019-01-05T14:13:31.230Z,102636.55
2019-01-05T14:16:18.419Z,102650.79
2019-01-05T14:19:11.593Z,102645.39
2019-01-05T14:22:09.034Z,102652.27
2019-01-05T14:25:17.430Z,102650.43
2019-01-05T14:28:04.156Z,102651.89
2019-01-05T14:31:10.398Z,102640.20
2019-01-05T14:34:04.305Z,102652.45
2019-01-05T14:37:00.239Z,102647.76
2019-01-05T14:39:54.761Z,102647.16
2019-01-05T14:42:47.694Z,102648.23
2019-01-05T14:45:50.450Z,102655.11
2019-01-05T14:48:44.508Z,102662.02
2019-01-05T14:51:41.470Z,102650.78
2019-01-05T14:54:39.973Z,102655.89
2019-01-05T14:57:28.438Z,102667.02
2019-01-05T15:00:15.759Z,102668.30
2019-01-05T15:03:05.094Z,102667.84
2019-01-05T15:06:08.786Z,102674.44
2019-01-05T15:09:18.716Z,102678.02
2019-01-05T15:12:12.186Z,102672.77
2019-01-05T15:15:26.939Z,102676.11
2019-01-05T15:18:26.664Z,102675.39
2019-01-05T15:21:27.714Z,102677.78
2019-01-05T15:24:16.039Z,102679.80
2019-01-05T15:27:18.282Z,102678.92
2019-01-05T15:30:07.802Z,102677.18
2019-01-05T15:32:58.717Z,102687.44
2019-01-05T15:35:50.381Z,102687.66
2019-01-05T15:38:38.702Z,102687.66
2019-01-05T15:41:27.435Z,102686.93
2019-01-05T15:44:14.215Z,102684.23
2019-01-05T15:47:17.783Z,102682.66
2019-01-05T15:50:20.329Z,102690.52
2019-01-05T15:53:14.170Z,102687.66
2019-01-05T15:56:00.847Z,102692.74
2019-01-05T15:58:57.977Z,102701.47
2019-01-05T16:01:58.065Z,102695.44
2019-01-05T16:04:46.767Z,102698.14
2019-01-05T16:07:47.240Z,102704.02
2019-01-05T16:10:46.436Z,102707.92
2019-01-05T16:13:47.793Z,102693.41
2019-01-05T16:16:35.114Z,102707.52
2019-01-05T16:19:28.637Z,102701.61
2019-01-05T16:22:17.322Z,102704.77
2019-01-05T16:25:07.784Z,102713.72
2019-01-05T16:27:56.545Z,102706.42
2019-01-05T16:30:56.778Z,102707.88
2019-01-05T16:34:09.011Z,102709.02
2019-01-05T16:37:22.165Z,102695.80
2019-01-05T16:40:09.444Z,102701.68
2019-01-05T16:42:55.391Z,102707.70
2019-01-05T16:46:06.930Z,102707.70
2019-01-05T16:48:59.973Z,102712.36
2019-01-05T16:52:06.575Z,102710.06
2019-01-05T16:55:06.217Z,102712.99
2019-01-05T16:58:06.233Z,102711.97
2019-01-05T17:01:06.702Z,102706.42
2019-01-05T17:03:55.142Z,102701.75
2019-01-05T17:06:38.573Z,102710.80
2019-01-05T17:09:39.266Z,102704.30
2019-01-05T17:13:18.064Z,102712.01
2019-01-05T17:16:11.896Z,102704.84
2019-01-05T17:18:50.128Z,102706.60
2019-01-05T17:21:46.981Z,102714.99
2019-01-05T17:24:31.843Z,102709.59
2019-01-05T17:27:23.390Z,102718.97
2019-01-05T17:30:23.950Z,102712.55
2019-01-05T17:33:13.761Z,102718.42
2019-01-05T17:36:17.763Z,102712.08
2019-01-05T17:39:15.283Z,102715.25
2019-01-05T17:42:32.025Z,102715.33
2019-01-05T17:45:24.058Z,102713.91
2019-01-05T17:48:12.053Z,102719.45
2019-01-05T17:51:04.046Z,102717.63
2019-01-05T17:54:07.237Z,102720.17
2019-01-05T17:56:55.663Z,102719.56
2019-01-05T18:00:14.530Z,102723.03
2019-01-05T18:03:28.247Z,102717.87
2019-01-05T18:06:03.250Z,102728.20
2019-01-05T18:09:08.391Z,102734.55
2019-01-05T18:12:10.068Z,102728.43
2019-01-05T18:14:59.927Z,102726.92
2019-01-05T18:18:35.852Z,102728.58
2019-01-05T18:21:20.288Z,102727.78
2019-01-05T18:24:23.928Z,102723.82
2019-01-05T18:27:18.454Z,102727.84
2019-01-05T18:30:17.215Z,102723.47
2019-01-05T18:33:14.600Z,102721.17
2019-01-05T18:36:17.321Z,102725.63
2019-01-05T18:39:07.264Z,102718.72
2019-01-05T18:42:05.825Z,102717.99
2019-01-05T18:44:53.467Z,102721.86
2019-01-05T18:47:40.132Z,102715.95
2019-01-05T18:50:41.694Z,102711.09
2019-01-05T18:53:44.794Z,102704.60
2019-01-05T18:56:44.078Z,102715.66
2019-01-05T18:59:34.481Z,102715.66
2019-01-05T19:02:42.934Z,102718.27
2019-01-05T19:05:50.204Z,102714.27
2019-01-05T19:08:50.699Z,102715.63
2019-01-05T19:12:15.521Z,102716.86
2019-01-05T19:14:49.895Z,102717.63
2019-01-05T19:17:47.564Z,102722.05
2019-01-05T19:20:42.242Z,102721.05
2019-01-05T19:23:27.724Z,102724.20
2019-01-05T19:26:28.936Z,102723.17
2019-01-05T19:29:26.509Z,102719.16
2019-01-05T19:32:24.682Z,102707.23
2019-01-05T19:35:11.425Z,102700.62
2019-01-05T19:38:02.711Z,102707.48
2019-01-05T19:41:18.161Z,102709.84
2019-01-05T19:44:04.591Z,102708.30
2019-01-05T19:46:57.175Z,102706.33
2019-01-05T19:49:50.882Z,102716.72
2019-01-05T19:52:58.913Z,102720.61
2019-01-05T19:56:08.273Z,102710.66
2019-01-05T19:59:19.478Z,102718.39
2019-01-05T20:02:04.657Z,102718.06
2019-01-05T20:05:13.753Z,102718.27
2019-01-05T20:08:03.333Z,102713.41
2019-01-05T20:11:00.953Z,102716.22
2019-01-05T20:13:48.202Z,102706.37
2019-01-05T20:16:53.030Z,102716.11
2019-01-05T20:19:39.802Z,102718.27
2019-01-05T20:22:37.895Z,102718.82
2019-01-05T20:25:30.818Z,102722.66
2019-01-05T20:28:25.564Z,102724.09
2019-01-05T20:31:26.002Z,102722.27
2019-01-05T20:34:20.879Z,102725.22
2019-01-05T20:37:12.432Z,102726.43
2019-01-05T20:40:07.082Z,102738.25
2019-01-05T20:42:56.190Z,102737.51
2019-01-05T20:45:44.794Z,102744.73
2019-01-05T20:48:34.464Z,102741.96
2019-01-05T20:51:41.073Z,102744.09
2019-01-05T20:54:29.956Z,102750.30
2019-01-05T20:57:27.130Z,102744.50
2019-01-05T21:00:16.661Z,102749.16
2019-01-05T21:03:10.487Z,102753.11
2019-01-05T21:06:04.338Z,102753.11
2019-01-05T21:08:54.771Z,102754.39
2019-01-05T21:11:37.205Z,102752.23
2019-01-05T21:14:25.292Z,102746.98
2019-01-05T21:17:11.810Z,102748.11
2019-01-05T21:19:58.585Z,102749.53
2019-01-05T21:22:45.197Z,102752.77
2019-01-05T21:25:33.222Z,102758.65
2019-01-05T21:28:15.283Z,102755.41
2019-01-05T21:30:57.097Z,102762.30
2019-01-05T21:33:45.156Z,102761.66
2019-01-05T21:36:42.068Z,102768.09
2019-01-05T21:39:28.539Z,102768.95
2019-01-05T21:42:15.107Z,102762.06
2019-01-05T21:45:01.804Z,102767.60
2019-01-05T21:47:49.637Z,102766.72
2019-01-05T21:50:39.727Z,102766.72
2019-01-05T21:53:27.780Z,102758.97
2019-01-05T21:56:13.957Z,102760.47
2019-01-05T21:59:04.726Z,102754.59
2019-01-05T22:01:51.147Z,102761.26
2019-01-05T22:04:53.016Z,102766.72
2019-01-05T22:07:37.405Z,102766.25
2019-01-05T22:10:34.845Z,102764.77
2019-01-05T22:13:22.359Z,102759.17
2019-01-05T22:16:13.032Z,102757.83
2019-01-05T22:18:59.574Z,102758.77
2019-01-05T22:21:50.202Z,102765.76
2019-01-05T22:24:36.164Z,102757.83
2019-01-05T22:27:20.650Z,102764.16
2019-01-05T22:30:08.638Z,102767.44
2019-01-05T22:33:14.775Z,102766.16
2019-01-05T22:36:02.791Z,102739.48
2019-01-05T22:38:50.517Z,102703.30
2019-01-05T22:41:47.308Z,102706.33
2019-01-05T22:44:35.336Z,102704.69
2019-01-05T22:47:15.210Z,102711.52
2019-01-05T22:50:02.245Z,102719.88
2019-01-05T22:52:56.116Z,102720.56
2019-01-05T22:55:57.307Z,102710.41
2019-01-05T22:58:48.056Z,102717.37
2019-01-05T23:01:34.920Z,102721.03
2019-01-05T23:04:19.308Z,102724.52
2019-01-05T23:07:06.284Z,102723.84
2019-01-05T23:09:53.108Z,102713.11
2019-01-05T23:12:55.775Z,102718.72
2019-01-05T23:15:43.744Z,102718.02
2019-01-05T23:18:30.587Z,102706.03
2019-01-05T23:21:14.977Z,102715.27
2019-01-05T23:24:08.737Z,102706.91
2019-01-05T23:27:08.625Z,102711.09
2019-01-05T23:29:55.238Z,102703.65
2019-01-05T23:32:38.354Z,102704.94
2019-01-05T23:35:41.901Z,102708.52
2019-01-05T23:38:49.772Z,102705.92
2019-01-05T23:41:29.827Z,102711.06
2019-01-05T23:44:23.838Z,102712.47
2019-01-05T23:47:10.697Z,102722.58
2019-01-05T23:50:04.704Z,102722.09
2019-01-05T23:52:52.320Z,102723.23
2019-01-05T23:55:39.172Z,102720.38
2019-01-05T23:58:45.254Z,102710.39
